Proud — 9HWA9 — position and weather

sailwx.info

Track history (hours):
 
Tides and Currents Weather Stations Pressure Air Temp Water Temp Dewpoint Dewpoint Depression Visibility Wind Speed Wind Dir Waves Ship Positions

Proud

Last reported at 2016-Jan-13 18:25 UTC. Time now 2016-Feb-13 15:18 UTC.
Position N 50°30' E 000°01'.
Warning: this ship's position is 30 days out of date.

Length 292 m; draft 11.1 m.

Type: Cargo ship. MMSI: 249619000.

Date/timePositionNaut miles runAvg speedWind from/ knotsBaromVisibWave heightAir tempDewpointWater temp
2016-Jan-13 18:25N 50°30' E 000°01'1112.7
2016-Jan-13 17:33N 50°33' E 000°17'1212.2
2016-Jan-13 16:33N 50°38' E 000°35'1211.6
2016-Jan-13 15:33N 50°43' E 000°51'1110.4
2016-Jan-13 14:31N 50°48' E 001°06'9 9.3
2016-Jan-13 13:33N 50°54' E 001°17'9 9.1
2016-Jan-13 12:33N 51°01' E 001°26'1110.8
2016-Jan-13 11:34N 51°08' E 001°39'1313.3
2016-Jan-13 10:34N 51°19' E 001°51'1413.6
2016-Jan-13 09:33N 51°31' E 002°03'1312.8
2016-Jan-13 08:33N 51°41' E 002°16'50 9.7
2016-Jan-13 03:20N 52°04' E 003°29'7 8.5
2016-Jan-13 02:33N 52°03' E 003°40'5 5.5
2016-Jan-13 01:33N 52°06' E 003°47'2 2.3
2016-Jan-13 00:33N 52°04' E 003°46'5 4.7
2016-Jan-12 23:34N 52°02' E 003°53'3 2.9
2016-Jan-12 22:33N 52°01' E 003°57'6 6.3
2016-Jan-12 21:34N 51°58' E 004°05'2 1.8
2016-Jan-12 20:33N 51°56' E 004°03'0 0.0
2016-Jan-12 19:33N 51°56' E 004°03'0 0.0
2016-Jan-12 18:33N 51°56' E 004°03'0 0.0
2016-Jan-12 17:33N 51°56' E 004°03'0 0.0
2016-Jan-12 16:33N 51°56' E 004°03'0 0.0
2016-Jan-12 15:33N 51°56' E 004°03'0 0.0
2016-Jan-12 14:33N 51°56' E 004°03'0 0.0
2016-Jan-12 13:33N 51°56' E 004°03'0 0.0
2016-Jan-12 12:33N 51°56' E 004°03'0 0.0
2016-Jan-12 11:33N 51°56' E 004°03'0 0.0
2016-Jan-12 10:33N 51°56' E 004°03'0 0.0
2016-Jan-12 09:33N 51°56' E 004°03'0 0.0
2016-Jan-12 08:33N 51°56' E 004°03'0 0.0
2016-Jan-12 07:33N 51°56' E 004°03'0 0.0
2016-Jan-12 06:33N 51°56' E 004°03'0 0.0
2016-Jan-12 05:33N 51°56' E 004°03'0 0.0
2016-Jan-12 04:33N 51°56' E 004°03'0 0.0
2016-Jan-12 03:33N 51°56' E 004°03'0 0.0
2016-Jan-12 02:33N 51°56' E 004°03'0 0.0
2016-Jan-12 01:33N 51°56' E 004°03'0 0.0
2016-Jan-12 00:33N 51°56' E 004°03'0 0.0
2016-Jan-11 23:33N 51°56' E 004°03'0 0.0
2016-Jan-11 22:33N 51°56' E 004°03'0 0.0
2016-Jan-11 21:33N 51°56' E 004°03'0 0.0
2016-Jan-11 20:33N 51°56' E 004°03'0 0.0
2016-Jan-11 19:33N 51°56' E 004°03'0 0.0
2016-Jan-11 18:33N 51°56' E 004°03'0 0.0
2016-Jan-11 17:33N 51°56' E 004°03'0 0.0
2016-Jan-11 16:33N 51°56' E 004°03'0 0.0
2016-Jan-11 15:33N 51°56' E 004°03'0 0.0
2016-Jan-11 14:30N 51°56' E 004°03'0 0.0
2016-Jan-11 13:33N 51°56' E 004°03'0 0.0
2016-Jan-11 12:33N 51°56' E 004°03'0 0.0
2016-Jan-11 11:33N 51°56' E 004°03'0 0.0
2016-Jan-11 10:33N 51°56' E 004°03'0 0.0
2016-Jan-11 09:33N 51°56' E 004°03'0 0.0
2016-Jan-11 08:33N 51°56' E 004°03'0 0.0
2016-Jan-11 07:33N 51°56' E 004°03'0 0.0
2016-Jan-11 06:30N 51°56' E 004°03'0 0.0
2016-Jan-11 05:33N 51°56' E 004°03'0 0.0
2016-Jan-11 04:33N 51°56' E 004°03'0 0.0
2016-Jan-11 03:33N 51°56' E 004°03'0 0.0
2016-Jan-11 02:33N 51°56' E 004°03'0 0.0
2016-Jan-11 01:33N 51°56' E 004°03'0 0.0
2016-Jan-11 00:33N 51°56' E 004°03'0 0.0
2016-Jan-10 23:33N 51°56' E 004°03'0 0.0
2016-Jan-10 22:33N 51°56' E 004°03'0 0.0
2016-Jan-10 21:33N 51°56' E 004°03'0 0.0
2016-Jan-10 20:33N 51°56' E 004°03'0 0.0
2016-Jan-10 19:30N 51°56' E 004°03'0 0.0
2016-Jan-10 18:33N 51°56' E 004°03'0 0.0
2016-Jan-10 17:33N 51°56' E 004°03'0 0.0
2016-Jan-10 16:33N 51°56' E 004°03'0 0.0
2016-Jan-10 15:33N 51°56' E 004°03'0 0.0
2016-Jan-10 14:33N 51°56' E 004°03'0 0.0
2016-Jan-10 13:33N 51°56' E 004°03'0 0.0
2016-Jan-10 12:33N 51°56' E 004°03'0 0.0
2016-Jan-10 10:33N 51°56' E 004°03'0 0.0
2016-Jan-10 09:33N 51°56' E 004°03'0 0.0
2016-Jan-10 08:33N 51°56' E 004°03'0 0.0
2016-Jan-10 07:33N 51°56' E 004°03'0 0.0
2016-Jan-10 06:33N 51°56' E 004°03'0 0.0
2016-Jan-10 05:30N 51°56' E 004°03'0 0.0
2016-Jan-10 04:33N 51°56' E 004°03'0 0.0
2016-Jan-10 03:34N 51°56' E 004°03'2 1.7
2016-Jan-10 02:34N 51°57' E 004°05'6 5.9
2016-Jan-10 01:33N 52°01' E 003°57'1110.7
2016-Jan-10 00:32N 52°01' E 003°40'48 2.1
2016-Jan-09 01:28N 51°41' E 002°29'1212.7
2016-Jan-09 00:33N 51°33' E 002°17'1010.6
2016-Jan-08 23:33N 51°25' E 002°04'1312.6
2016-Jan-08 22:33N 51°16' E 001°52'1312.6
2016-Jan-08 21:33N 51°05' E 001°40'1211.9
2016-Jan-08 20:33N 50°56' E 001°28'  
Track history (hours):
 
Tides and Currents Weather Stations Pressure Air Temp Water Temp Dewpoint Dewpoint Depression Visibility Wind Speed Wind Dir Waves Ship Positions

Proud

Last reported at 2016-Jan-13 18:25 UTC. Time now 2016-Feb-13 15:18 UTC.
Position N 50°30' E 000°01'.
Warning: this ship's position is 30 days out of date.

Length 292 m; draft 11.1 m.

Type: Cargo ship. MMSI: 249619000.

Date/timePositionNaut miles runAvg speedWind from/ knotsBaromVisibWave heightAir tempDewpointWater temp
2016-Jan-13 18:25N 50°30' E 000°01'1112.7
2016-Jan-13 17:33N 50°33' E 000°17'1212.2
2016-Jan-13 16:33N 50°38' E 000°35'1211.6
2016-Jan-13 15:33N 50°43' E 000°51'1110.4
2016-Jan-13 14:31N 50°48' E 001°06'9 9.3
2016-Jan-13 13:33N 50°54' E 001°17'9 9.1
2016-Jan-13 12:33N 51°01' E 001°26'1110.8
2016-Jan-13 11:34N 51°08' E 001°39'1313.3
2016-Jan-13 10:34N 51°19' E 001°51'1413.6
2016-Jan-13 09:33N 51°31' E 002°03'1312.8
2016-Jan-13 08:33N 51°41' E 002°16'50 9.7
2016-Jan-13 03:20N 52°04' E 003°29'7 8.5
2016-Jan-13 02:33N 52°03' E 003°40'5 5.5
2016-Jan-13 01:33N 52°06' E 003°47'2 2.3
2016-Jan-13 00:33N 52°04' E 003°46'5 4.7
2016-Jan-12 23:34N 52°02' E 003°53'3 2.9
2016-Jan-12 22:33N 52°01' E 003°57'6 6.3
2016-Jan-12 21:34N 51°58' E 004°05'2 1.8
2016-Jan-12 20:33N 51°56' E 004°03'0 0.0
2016-Jan-12 19:33N 51°56' E 004°03'0 0.0
2016-Jan-12 18:33N 51°56' E 004°03'0 0.0
2016-Jan-12 17:33N 51°56' E 004°03'0 0.0
2016-Jan-12 16:33N 51°56' E 004°03'0 0.0
2016-Jan-12 15:33N 51°56' E 004°03'0 0.0
2016-Jan-12 14:33N 51°56' E 004°03'0 0.0
2016-Jan-12 13:33N 51°56' E 004°03'0 0.0
2016-Jan-12 12:33N 51°56' E 004°03'0 0.0
2016-Jan-12 11:33N 51°56' E 004°03'0 0.0
2016-Jan-12 10:33N 51°56' E 004°03'0 0.0
2016-Jan-12 09:33N 51°56' E 004°03'0 0.0
2016-Jan-12 08:33N 51°56' E 004°03'0 0.0
2016-Jan-12 07:33N 51°56' E 004°03'0 0.0
2016-Jan-12 06:33N 51°56' E 004°03'0 0.0
2016-Jan-12 05:33N 51°56' E 004°03'0 0.0
2016-Jan-12 04:33N 51°56' E 004°03'0 0.0
2016-Jan-12 03:33N 51°56' E 004°03'0 0.0
2016-Jan-12 02:33N 51°56' E 004°03'0 0.0
2016-Jan-12 01:33N 51°56' E 004°03'0 0.0
2016-Jan-12 00:33N 51°56' E 004°03'0 0.0
2016-Jan-11 23:33N 51°56' E 004°03'0 0.0
2016-Jan-11 22:33N 51°56' E 004°03'0 0.0
2016-Jan-11 21:33N 51°56' E 004°03'0 0.0
2016-Jan-11 20:33N 51°56' E 004°03'0 0.0
2016-Jan-11 19:33N 51°56' E 004°03'0 0.0
2016-Jan-11 18:33N 51°56' E 004°03'0 0.0
2016-Jan-11 17:33N 51°56' E 004°03'0 0.0
2016-Jan-11 16:33N 51°56' E 004°03'0 0.0
2016-Jan-11 15:33N 51°56' E 004°03'0 0.0
2016-Jan-11 14:30N 51°56' E 004°03'0 0.0
2016-Jan-11 13:33N 51°56' E 004°03'0 0.0
2016-Jan-11 12:33N 51°56' E 004°03'0 0.0
2016-Jan-11 11:33N 51°56' E 004°03'0 0.0
2016-Jan-11 10:33N 51°56' E 004°03'0 0.0
2016-Jan-11 09:33N 51°56' E 004°03'0 0.0
2016-Jan-11 08:33N 51°56' E 004°03'0 0.0
2016-Jan-11 07:33N 51°56' E 004°03'0 0.0
2016-Jan-11 06:30N 51°56' E 004°03'0 0.0
2016-Jan-11 05:33N 51°56' E 004°03'0 0.0
2016-Jan-11 04:33N 51°56' E 004°03'0 0.0
2016-Jan-11 03:33N 51°56' E 004°03'0 0.0
2016-Jan-11 02:33N 51°56' E 004°03'0 0.0
2016-Jan-11 01:33N 51°56' E 004°03'0 0.0
2016-Jan-11 00:33N 51°56' E 004°03'0 0.0
2016-Jan-10 23:33N 51°56' E 004°03'0 0.0
2016-Jan-10 22:33N 51°56' E 004°03'0 0.0
2016-Jan-10 21:33N 51°56' E 004°03'0 0.0
2016-Jan-10 20:33N 51°56' E 004°03'0 0.0
2016-Jan-10 19:30N 51°56' E 004°03'0 0.0
2016-Jan-10 18:33N 51°56' E 004°03'0 0.0
2016-Jan-10 17:33N 51°56' E 004°03'0 0.0
2016-Jan-10 16:33N 51°56' E 004°03'0 0.0
2016-Jan-10 15:33N 51°56' E 004°03'0 0.0
2016-Jan-10 14:33N 51°56' E 004°03'0 0.0
2016-Jan-10 13:33N 51°56' E 004°03'0 0.0
2016-Jan-10 12:33N 51°56' E 004°03'0 0.0
2016-Jan-10 10:33N 51°56' E 004°03'0 0.0
2016-Jan-10 09:33N 51°56' E 004°03'0 0.0
2016-Jan-10 08:33N 51°56' E 004°03'0 0.0
2016-Jan-10 07:33N 51°56' E 004°03'0 0.0
2016-Jan-10 06:33N 51°56' E 004°03'0 0.0
2016-Jan-10 05:30N 51°56' E 004°03'0 0.0
2016-Jan-10 04:33N 51°56' E 004°03'0 0.0
2016-Jan-10 03:34N 51°56' E 004°03'2 1.7
2016-Jan-10 02:34N 51°57' E 004°05'6 5.9
2016-Jan-10 01:33N 52°01' E 003°57'1110.7
2016-Jan-10 00:32N 52°01' E 003°40'48 2.1
2016-Jan-09 01:28N 51°41' E 002°29'1212.7
2016-Jan-09 00:33N 51°33' E 002°17'1010.6
2016-Jan-08 23:33N 51°25' E 002°04'1312.6
2016-Jan-08 22:33N 51°16' E 001°52'1312.6
2016-Jan-08 21:33N 51°05' E 001°40'1211.9
2016-Jan-08 20:33N 50°56' E 001°28'  

Dump ship's entire track history